Terminal Aerodrome Forecast
Issued by NWS Cleveland, OH

Home | Current Version | Previous Version | Text Only | Print | Product List | Glossary Off
Versions: 1 2 3 4 5 6 7 8 9 10 11 12 13 14 15 16 17 18 19 20

000
FTUS41 KCLE 100200 AAA
TAFCAK
TAF AMD
KCAK 100200Z 1002/1024 25008KT P6SM VCSH SCT008 OVC015
      TEMPO 1002/1004 3SM -SHSN
     FM100900 28012KT P6SM SCT015 OVC025
     FM101700 25014KT P6SM SCT025 OVC035=

USA.gov is the U.S. government's official web portal to all federal, state and local government web resources and services.